sensor_id;sensor_type;location;lat;lon;timestamp;P1;durP1;ratioP1;P2;durP2;ratioP2
15699;SDS011;7950;42.744;23.174;2023-06-10T00:01:23;12.53;;;7.10;;
15699;SDS011;7950;42.744;23.174;2023-06-10T00:03:51;8.03;;;6.40;;
15699;SDS011;7950;42.744;23.174;2023-06-10T00:06:22;8.83;;;6.10;;
15699;SDS011;7950;42.744;23.174;2023-06-10T00:08:51;7.00;;;6.30;;
15699;SDS011;7950;42.744;23.174;2023-06-10T00:11:20;10.00;;;7.00;;
15699;SDS011;7950;42.744;23.174;2023-06-10T00:13:49;8.60;;;6.63;;
15699;SDS011;7950;42.744;23.174;2023-06-10T00:16:17;9.67;;;6.63;;
15699;SDS011;7950;42.744;23.174;2023-06-10T00:18:46;8.20;;;6.90;;
15699;SDS011;7950;42.744;23.174;2023-06-10T00:21:15;7.33;;;6.60;;
15699;SDS011;7950;42.744;23.174;2023-06-10T00:23:45;7.17;;;6.47;;
15699;SDS011;7950;42.744;23.174;2023-06-10T00:26:14;9.30;;;7.00;;
15699;SDS011;7950;42.744;23.174;2023-06-10T00:28:42;7.90;;;7.07;;
15699;SDS011;7950;42.744;23.174;2023-06-10T00:31:11;8.43;;;7.57;;
15699;SDS011;7950;42.744;23.174;2023-06-10T00:33:40;10.20;;;7.73;;
15699;SDS011;7950;42.744;23.174;2023-06-10T00:36:08;8.83;;;7.30;;
15699;SDS011;7950;42.744;23.174;2023-06-10T00:38:37;8.70;;;7.00;;
15699;SDS011;7950;42.744;23.174;2023-06-10T00:41:08;8.53;;;7.40;;
15699;SDS011;7950;42.744;23.174;2023-06-10T00:43:36;9.50;;;7.53;;
15699;SDS011;7950;42.744;23.174;2023-06-10T00:46:05;9.73;;;7.60;;
15699;SDS011;7950;42.744;23.174;2023-06-10T00:48:33;8.33;;;7.40;;
15699;SDS011;7950;42.744;23.174;2023-06-10T00:51:03;10.00;;;7.90;;
15699;SDS011;7950;42.744;23.174;2023-06-10T00:53:35;8.83;;;7.40;;
15699;SDS011;7950;42.744;23.174;2023-06-10T00:56:09;8.23;;;7.10;;
15699;SDS011;7950;42.744;23.174;2023-06-10T00:58:37;10.77;;;7.23;;
15699;SDS011;7950;42.744;23.174;2023-06-10T01:01:06;10.73;;;7.37;;
15699;SDS011;7950;42.744;23.174;2023-06-10T01:03:37;10.77;;;7.73;;
15699;SDS011;7950;42.744;23.174;2023-06-10T01:06:09;8.27;;;7.47;;
15699;SDS011;7950;42.744;23.174;2023-06-10T01:08:52;9.37;;;7.27;;
15699;SDS011;7950;42.744;23.174;2023-06-10T01:11:33;8.00;;;7.17;;
15699;SDS011;7950;42.744;23.174;2023-06-10T01:14:08;8.87;;;7.23;;
15699;SDS011;7950;42.744;23.174;2023-06-10T01:16:38;8.43;;;7.37;;
15699;SDS011;7950;42.744;23.174;2023-06-10T01:19:07;7.73;;;7.03;;
15699;SDS011;7950;42.744;23.174;2023-06-10T01:21:38;7.83;;;6.70;;
15699;SDS011;7950;42.744;23.174;2023-06-10T01:24:07;8.00;;;7.17;;
15699;SDS011;7950;42.744;23.174;2023-06-10T01:26:37;8.10;;;6.67;;
15699;SDS011;7950;42.744;23.174;2023-06-10T01:29:08;7.50;;;6.73;;
15699;SDS011;7950;42.744;23.174;2023-06-10T01:31:47;6.80;;;6.20;;
15699;SDS011;7950;42.744;23.174;2023-06-10T01:34:24;7.53;;;6.77;;
15699;SDS011;7950;42.744;23.174;2023-06-10T01:36:56;7.10;;;6.00;;
15699;SDS011;7950;42.744;23.174;2023-06-10T01:39:26;8.93;;;6.63;;
15699;SDS011;7950;42.744;23.174;2023-06-10T01:41:56;7.77;;;6.53;;
15699;SDS011;7950;42.744;23.174;2023-06-10T01:44:25;9.10;;;7.37;;
15699;SDS011;7950;42.744;23.174;2023-06-10T01:46:54;6.80;;;5.90;;
15699;SDS011;7950;42.744;23.174;2023-06-10T01:49:22;8.20;;;6.30;;
15699;SDS011;7950;42.744;23.174;2023-06-10T01:51:52;8.73;;;6.60;;
15699;SDS011;7950;42.744;23.174;2023-06-10T01:54:22;7.33;;;6.37;;
15699;SDS011;7950;42.744;23.174;2023-06-10T01:56:51;8.77;;;7.03;;
15699;SDS011;7950;42.744;23.174;2023-06-10T01:59:20;9.60;;;6.87;;
15699;SDS011;7950;42.744;23.174;2023-06-10T02:01:48;7.80;;;7.00;;
15699;SDS011;7950;42.744;23.174;2023-06-10T02:04:17;7.87;;;7.13;;
15699;SDS011;7950;42.744;23.174;2023-06-10T02:06:45;7.30;;;6.60;;
15699;SDS011;7950;42.744;23.174;2023-06-10T02:09:14;7.50;;;6.80;;
15699;SDS011;7950;42.744;23.174;2023-06-10T02:11:46;7.73;;;7.03;;
15699;SDS011;7950;42.744;23.174;2023-06-10T02:14:14;7.63;;;6.83;;
15699;SDS011;7950;42.744;23.174;2023-06-10T02:16:43;7.63;;;6.83;;
15699;SDS011;7950;42.744;23.174;2023-06-10T02:19:13;7.90;;;6.63;;
15699;SDS011;7950;42.744;23.174;2023-06-10T02:21:42;7.67;;;6.90;;
15699;SDS011;7950;42.744;23.174;2023-06-10T02:24:10;7.03;;;5.90;;
15699;SDS011;7950;42.744;23.174;2023-06-10T02:26:39;8.30;;;7.13;;
15699;SDS011;7950;42.744;23.174;2023-06-10T02:29:09;7.33;;;6.63;;
15699;SDS011;7950;42.744;23.174;2023-06-10T02:31:38;9.83;;;7.53;;
15699;SDS011;7950;42.744;23.174;2023-06-10T02:34:07;9.63;;;6.60;;
15699;SDS011;7950;42.744;23.174;2023-06-10T02:36:36;6.40;;;5.77;;
15699;SDS011;7950;42.744;23.174;2023-06-10T02:39:04;7.30;;;6.37;;
15699;SDS011;7950;42.744;23.174;2023-06-10T02:41:33;7.53;;;6.33;;
15699;SDS011;7950;42.744;23.174;2023-06-10T02:44:02;7.27;;;6.57;;
15699;SDS011;7950;42.744;23.174;2023-06-10T02:46:32;9.57;;;7.70;;
15699;SDS011;7950;42.744;23.174;2023-06-10T02:49:00;8.40;;;6.57;;
15699;SDS011;7950;42.744;23.174;2023-06-10T02:51:29;6.73;;;6.13;;
15699;SDS011;7950;42.744;23.174;2023-06-10T02:53:58;7.30;;;6.60;;
15699;SDS011;7950;42.744;23.174;2023-06-10T02:56:26;7.17;;;6.17;;
15699;SDS011;7950;42.744;23.174;2023-06-10T02:58:55;7.83;;;6.97;;
15699;SDS011;7950;42.744;23.174;2023-06-10T03:01:23;7.30;;;6.33;;
15699;SDS011;7950;42.744;23.174;2023-06-10T03:03:53;6.73;;;6.13;;
15699;SDS011;7950;42.744;23.174;2023-06-10T03:06:23;7.07;;;6.37;;
15699;SDS011;7950;42.744;23.174;2023-06-10T03:08:52;6.97;;;6.27;;
15699;SDS011;7950;42.744;23.174;2023-06-10T03:11:21;7.27;;;6.20;;
15699;SDS011;7950;42.744;23.174;2023-06-10T03:13:50;7.37;;;6.57;;
15699;SDS011;7950;42.744;23.174;2023-06-10T03:16:20;8.03;;;6.10;;
15699;SDS011;7950;42.744;23.174;2023-06-10T03:18:48;6.50;;;5.90;;
15699;SDS011;7950;42.744;23.174;2023-06-10T03:21:18;6.43;;;5.83;;
15699;SDS011;7950;42.744;23.174;2023-06-10T03:23:47;6.80;;;6.17;;
15699;SDS011;7950;42.744;23.174;2023-06-10T03:26:16;6.40;;;5.80;;
15699;SDS011;7950;42.744;23.174;2023-06-10T03:28:48;7.83;;;5.90;;
15699;SDS011;7950;42.744;23.174;2023-06-10T03:31:16;5.93;;;5.33;;
15699;SDS011;7950;42.744;23.174;2023-06-10T03:33:45;6.13;;;5.53;;
15699;SDS011;7950;42.744;23.174;2023-06-10T03:36:13;6.50;;;5.90;;
15699;SDS011;7950;42.744;23.174;2023-06-10T03:38:43;6.33;;;5.53;;
15699;SDS011;7950;42.744;23.174;2023-06-10T03:41:11;6.40;;;5.80;;
15699;SDS011;7950;42.744;23.174;2023-06-10T03:43:40;6.93;;;5.67;;
15699;SDS011;7950;42.744;23.174;2023-06-10T03:46:11;6.50;;;5.77;;
15699;SDS011;7950;42.744;23.174;2023-06-10T03:48:39;6.53;;;5.93;;
15699;SDS011;7950;42.744;23.174;2023-06-10T03:51:07;6.87;;;6.20;;
15699;SDS011;7950;42.744;23.174;2023-06-10T03:53:36;6.50;;;6.00;;
15699;SDS011;7950;42.744;23.174;2023-06-10T03:56:06;6.80;;;6.07;;
15699;SDS011;7950;42.744;23.174;2023-06-10T03:58:34;6.93;;;6.23;;
15699;SDS011;7950;42.744;23.174;2023-06-10T04:01:03;6.40;;;5.80;;
15699;SDS011;7950;42.744;23.174;2023-06-10T04:03:31;6.30;;;5.70;;
15699;SDS011;7950;42.744;23.174;2023-06-10T04:06:00;8.00;;;5.70;;
15699;SDS011;7950;42.744;23.174;2023-06-10T04:08:29;6.63;;;6.03;;
15699;SDS011;7950;42.744;23.174;2023-06-10T04:10:59;7.13;;;6.10;;
15699;SDS011;7950;42.744;23.174;2023-06-10T04:13:29;7.20;;;6.50;;
15699;SDS011;7950;42.744;23.174;2023-06-10T04:15:58;8.27;;;6.33;;
15699;SDS011;7950;42.744;23.174;2023-06-10T04:18:27;7.43;;;6.27;;
15699;SDS011;7950;42.744;23.174;2023-06-10T04:20:55;7.63;;;6.30;;
15699;SDS011;7950;42.744;23.174;2023-06-10T04:23:24;6.13;;;5.50;;
15699;SDS011;7950;42.744;23.174;2023-06-10T04:25:52;6.40;;;5.80;;
15699;SDS011;7950;42.744;23.174;2023-06-10T04:28:21;6.83;;;6.20;;
15699;SDS011;7950;42.744;23.174;2023-06-10T04:30:51;6.67;;;6.07;;
15699;SDS011;7950;42.744;23.174;2023-06-10T04:33:19;6.83;;;6.23;;
15699;SDS011;7950;42.744;23.174;2023-06-10T04:35:48;6.53;;;5.80;;
15699;SDS011;7950;42.744;23.174;2023-06-10T04:38:17;6.53;;;5.70;;
15699;SDS011;7950;42.744;23.174;2023-06-10T04:40:47;7.37;;;6.67;;
15699;SDS011;7950;42.744;23.174;2023-06-10T04:43:15;8.80;;;6.07;;
15699;SDS011;7950;42.744;23.174;2023-06-10T04:45:44;6.60;;;6.00;;
15699;SDS011;7950;42.744;23.174;2023-06-10T04:48:15;7.20;;;6.50;;
15699;SDS011;7950;42.744;23.174;2023-06-10T04:50:43;6.37;;;5.77;;
15699;SDS011;7950;42.744;23.174;2023-06-10T04:53:12;7.23;;;6.53;;
15699;SDS011;7950;42.744;23.174;2023-06-10T04:55:41;7.07;;;6.37;;
15699;SDS011;7950;42.744;23.174;2023-06-10T04:58:10;5.83;;;5.33;;
15699;SDS011;7950;42.744;23.174;2023-06-10T05:00:38;7.37;;;6.67;;
15699;SDS011;7950;42.744;23.174;2023-06-10T05:03:07;7.17;;;6.37;;
15699;SDS011;7950;42.744;23.174;2023-06-10T05:05:37;6.60;;;5.53;;
15699;SDS011;7950;42.744;23.174;2023-06-10T05:08:05;5.80;;;5.30;;
15699;SDS011;7950;42.744;23.174;2023-06-10T05:10:34;7.23;;;5.63;;
15699;SDS011;7950;42.744;23.174;2023-06-10T05:13:03;6.47;;;5.50;;
15699;SDS011;7950;42.744;23.174;2023-06-10T05:15:32;6.33;;;5.47;;
15699;SDS011;7950;42.744;23.174;2023-06-10T05:18:00;7.90;;;6.70;;
15699;SDS011;7950;42.744;23.174;2023-06-10T05:20:30;7.53;;;6.80;;
15699;SDS011;7950;42.744;23.174;2023-06-10T05:22:59;6.70;;;6.10;;
15699;SDS011;7950;42.744;23.174;2023-06-10T05:25:30;7.07;;;6.43;;
15699;SDS011;7950;42.744;23.174;2023-06-10T05:27:58;7.33;;;6.17;;
15699;SDS011;7950;42.744;23.174;2023-06-10T05:30:27;6.97;;;6.27;;
15699;SDS011;7950;42.744;23.174;2023-06-10T05:32:56;6.63;;;5.93;;
15699;SDS011;7950;42.744;23.174;2023-06-10T05:35:24;7.40;;;6.10;;
15699;SDS011;7950;42.744;23.174;2023-06-10T05:37:53;6.50;;;5.87;;
15699;SDS011;7950;42.744;23.174;2023-06-10T05:40:23;7.17;;;6.03;;
15699;SDS011;7950;42.744;23.174;2023-06-10T05:42:51;10.03;;;6.83;;
15699;SDS011;7950;42.744;23.174;2023-06-10T05:45:20;5.93;;;5.40;;
15699;SDS011;7950;42.744;23.174;2023-06-10T05:47:48;6.40;;;5.80;;
15699;SDS011;7950;42.744;23.174;2023-06-10T05:50:17;5.50;;;5.00;;
15699;SDS011;7950;42.744;23.174;2023-06-10T05:52:46;6.33;;;5.73;;
15699;SDS011;7950;42.744;23.174;2023-06-10T05:55:14;6.90;;;5.63;;
15699;SDS011;7950;42.744;23.174;2023-06-10T05:57:44;6.47;;;5.87;;
15699;SDS011;7950;42.744;23.174;2023-06-10T06:00:13;7.87;;;5.97;;
15699;SDS011;7950;42.744;23.174;2023-06-10T06:02:42;7.77;;;5.10;;
15699;SDS011;7950;42.744;23.174;2023-06-10T06:05:11;6.37;;;5.73;;
15699;SDS011;7950;42.744;23.174;2023-06-10T06:07:40;6.67;;;5.63;;
15699;SDS011;7950;42.744;23.174;2023-06-10T06:10:09;6.30;;;5.37;;
15699;SDS011;7950;42.744;23.174;2023-06-10T06:12:37;5.73;;;5.13;;
15699;SDS011;7950;42.744;23.174;2023-06-10T06:15:08;6.17;;;5.27;;
15699;SDS011;7950;42.744;23.174;2023-06-10T06:17:38;5.57;;;5.07;;
15699;SDS011;7950;42.744;23.174;2023-06-10T06:20:07;6.13;;;4.93;;
15699;SDS011;7950;42.744;23.174;2023-06-10T06:22:36;5.50;;;5.00;;
15699;SDS011;7950;42.744;23.174;2023-06-10T06:25:05;4.67;;;4.20;;
15699;SDS011;7950;42.744;23.174;2023-06-10T06:27:34;5.33;;;4.40;;
15699;SDS011;7950;42.744;23.174;2023-06-10T06:30:03;5.23;;;4.73;;
15699;SDS011;7950;42.744;23.174;2023-06-10T06:32:35;5.30;;;4.80;;
15699;SDS011;7950;42.744;23.174;2023-06-10T06:35:04;6.83;;;4.73;;
15699;SDS011;7950;42.744;23.174;2023-06-10T06:37:35;5.40;;;4.90;;
15699;SDS011;7950;42.744;23.174;2023-06-10T06:40:05;6.17;;;4.70;;
15699;SDS011;7950;42.744;23.174;2023-06-10T06:42:35;4.97;;;4.30;;
15699;SDS011;7950;42.744;23.174;2023-06-10T06:45:03;5.80;;;4.83;;
15699;SDS011;7950;42.744;23.174;2023-06-10T06:47:35;5.37;;;4.27;;
15699;SDS011;7950;42.744;23.174;2023-06-10T06:50:04;5.50;;;5.03;;
15699;SDS011;7950;42.744;23.174;2023-06-10T06:52:33;5.43;;;4.87;;
15699;SDS011;7950;42.744;23.174;2023-06-10T06:55:02;6.87;;;5.17;;
15699;SDS011;7950;42.744;23.174;2023-06-10T06:57:31;6.43;;;5.43;;
15699;SDS011;7950;42.744;23.174;2023-06-10T07:00:00;5.03;;;4.33;;
15699;SDS011;7950;42.744;23.174;2023-06-10T07:02:28;5.20;;;4.70;;
15699;SDS011;7950;42.744;23.174;2023-06-10T07:05:00;5.50;;;5.00;;
15699;SDS011;7950;42.744;23.174;2023-06-10T07:07:28;5.43;;;4.80;;
15699;SDS011;7950;42.744;23.174;2023-06-10T07:09:57;5.03;;;4.53;;
15699;SDS011;7950;42.744;23.174;2023-06-10T07:12:25;5.33;;;4.37;;
15699;SDS011;7950;42.744;23.174;2023-06-10T07:14:54;4.70;;;4.30;;
15699;SDS011;7950;42.744;23.174;2023-06-10T07:17:22;6.27;;;4.57;;
15699;SDS011;7950;42.744;23.174;2023-06-10T07:19:51;7.07;;;5.27;;
15699;SDS011;7950;42.744;23.174;2023-06-10T07:22:21;5.20;;;4.47;;
15699;SDS011;7950;42.744;23.174;2023-06-10T07:24:49;4.70;;;4.10;;
15699;SDS011;7950;42.744;23.174;2023-06-10T07:27:18;5.97;;;4.30;;
15699;SDS011;7950;42.744;23.174;2023-06-10T07:29:46;4.30;;;3.90;;
15699;SDS011;7950;42.744;23.174;2023-06-10T07:32:15;4.07;;;3.70;;
15699;SDS011;7950;42.744;23.174;2023-06-10T07:34:44;5.80;;;4.20;;
15699;SDS011;7950;42.744;23.174;2023-06-10T07:37:13;4.20;;;3.80;;
15699;SDS011;7950;42.744;23.174;2023-06-10T07:39:43;4.83;;;4.30;;
15699;SDS011;7950;42.744;23.174;2023-06-10T07:42:11;4.53;;;3.90;;
15699;SDS011;7950;42.744;23.174;2023-06-10T07:44:40;4.27;;;3.87;;
15699;SDS011;7950;42.744;23.174;2023-06-10T07:47:09;6.07;;;4.27;;
15699;SDS011;7950;42.744;23.174;2023-06-10T07:49:37;5.70;;;4.20;;
15699;SDS011;7950;42.744;23.174;2023-06-10T07:52:06;6.30;;;3.80;;
15699;SDS011;7950;42.744;23.174;2023-06-10T07:54:35;5.00;;;4.10;;
15699;SDS011;7950;42.744;23.174;2023-06-10T07:57:06;5.50;;;3.73;;
15699;SDS011;7950;42.744;23.174;2023-06-10T07:59:34;5.03;;;4.03;;
15699;SDS011;7950;42.744;23.174;2023-06-10T08:02:03;5.33;;;4.33;;
15699;SDS011;7950;42.744;23.174;2023-06-10T08:04:32;6.83;;;6.17;;
15699;SDS011;7950;42.744;23.174;2023-06-10T08:07:02;5.40;;;4.90;;
15699;SDS011;7950;42.744;23.174;2023-06-10T08:09:31;5.00;;;4.50;;
15699;SDS011;7950;42.744;23.174;2023-06-10T08:12:00;6.53;;;4.20;;
15699;SDS011;7950;42.744;23.174;2023-06-10T08:14:30;4.90;;;4.40;;
15699;SDS011;7950;42.744;23.174;2023-06-10T08:16:59;7.40;;;4.00;;
15699;SDS011;7950;42.744;23.174;2023-06-10T08:19:27;6.77;;;3.90;;
15699;SDS011;7950;42.744;23.174;2023-06-10T08:21:57;4.00;;;3.60;;
15699;SDS011;7950;42.744;23.174;2023-06-10T08:24:25;4.80;;;3.83;;
15699;SDS011;7950;42.744;23.174;2023-06-10T08:26:54;8.87;;;4.00;;
15699;SDS011;7950;42.744;23.174;2023-06-10T08:29:23;5.63;;;3.90;;
15699;SDS011;7950;42.744;23.174;2023-06-10T08:31:54;5.77;;;3.87;;
15699;SDS011;7950;42.744;23.174;2023-06-10T08:34:23;5.87;;;3.57;;
15699;SDS011;7950;42.744;23.174;2023-06-10T08:36:51;6.20;;;3.60;;
15699;SDS011;7950;42.744;23.174;2023-06-10T08:39:21;3.57;;;3.27;;
15699;SDS011;7950;42.744;23.174;2023-06-10T08:41:51;3.20;;;2.90;;
15699;SDS011;7950;42.744;23.174;2023-06-10T08:44:37;4.50;;;3.33;;
15699;SDS011;7950;42.744;23.174;2023-06-10T08:47:10;3.37;;;3.00;;
15699;SDS011;7950;42.744;23.174;2023-06-10T08:49:43;3.50;;;3.20;;
15699;SDS011;7950;42.744;23.174;2023-06-10T08:52:14;5.10;;;3.20;;
15699;SDS011;7950;42.744;23.174;2023-06-10T08:54:46;4.33;;;3.40;;
15699;SDS011;7950;42.744;23.174;2023-06-10T08:57:22;3.50;;;3.20;;
15699;SDS011;7950;42.744;23.174;2023-06-10T08:59:50;5.97;;;3.63;;
15699;SDS011;7950;42.744;23.174;2023-06-10T09:02:23;4.13;;;3.60;;
15699;SDS011;7950;42.744;23.174;2023-06-10T09:04:52;3.50;;;3.20;;
15699;SDS011;7950;42.744;23.174;2023-06-10T09:07:23;6.77;;;3.40;;
15699;SDS011;7950;42.744;23.174;2023-06-10T09:09:53;3.50;;;3.20;;
15699;SDS011;7950;42.744;23.174;2023-06-10T09:12:24;4.60;;;3.30;;
15699;SDS011;7950;42.744;23.174;2023-06-10T09:14:53;3.40;;;3.10;;
15699;SDS011;7950;42.744;23.174;2023-06-10T09:17:23;3.87;;;3.23;;
15699;SDS011;7950;42.744;23.174;2023-06-10T09:19:52;3.70;;;3.13;;
15699;SDS011;7950;42.744;23.174;2023-06-10T09:22:22;3.50;;;3.20;;
15699;SDS011;7950;42.744;23.174;2023-06-10T09:25:01;5.87;;;3.73;;
15699;SDS011;7950;42.744;23.174;2023-06-10T09:27:31;5.07;;;4.10;;
15699;SDS011;7950;42.744;23.174;2023-06-10T09:30:00;4.53;;;3.93;;
15699;SDS011;7950;42.744;23.174;2023-06-10T09:32:30;4.03;;;3.63;;
15699;SDS011;7950;42.744;23.174;2023-06-10T09:34:58;4.27;;;3.87;;
15699;SDS011;7950;42.744;23.174;2023-06-10T09:37:27;4.03;;;3.57;;
15699;SDS011;7950;42.744;23.174;2023-06-10T09:40:02;4.67;;;3.60;;
15699;SDS011;7950;42.744;23.174;2023-06-10T09:42:33;5.20;;;3.47;;
15699;SDS011;7950;42.744;23.174;2023-06-10T09:45:04;4.37;;;3.40;;
15699;SDS011;7950;42.744;23.174;2023-06-10T09:47:36;4.87;;;3.77;;
15699;SDS011;7950;42.744;23.174;2023-06-10T09:50:05;3.93;;;3.50;;
15699;SDS011;7950;42.744;23.174;2023-06-10T09:52:36;3.60;;;3.30;;
15699;SDS011;7950;42.744;23.174;2023-06-10T09:55:07;3.97;;;3.63;;
15699;SDS011;7950;42.744;23.174;2023-06-10T09:57:37;3.50;;;3.20;;
15699;SDS011;7950;42.744;23.174;2023-06-10T10:00:08;4.27;;;3.57;;
15699;SDS011;7950;42.744;23.174;2023-06-10T10:02:47;4.63;;;3.50;;
15699;SDS011;7950;42.744;23.174;2023-06-10T10:05:18;4.20;;;3.10;;
15699;SDS011;7950;42.744;23.174;2023-06-10T10:07:50;3.67;;;3.27;;
15699;SDS011;7950;42.744;23.174;2023-06-10T10:10:20;4.53;;;3.27;;
15699;SDS011;7950;42.744;23.174;2023-06-10T10:12:50;5.93;;;3.77;;
15699;SDS011;7950;42.744;23.174;2023-06-10T10:15:23;4.33;;;3.93;;
15699;SDS011;7950;42.744;23.174;2023-06-10T10:18:00;4.27;;;3.60;;
15699;SDS011;7950;42.744;23.174;2023-06-10T10:20:37;4.20;;;3.80;;
15699;SDS011;7950;42.744;23.174;2023-06-10T10:23:14;5.10;;;3.63;;
15699;SDS011;7950;42.744;23.174;2023-06-10T10:25:49;4.67;;;4.10;;
15699;SDS011;7950;42.744;23.174;2023-06-10T10:28:23;7.97;;;4.17;;
15699;SDS011;7950;42.744;23.174;2023-06-10T10:30:59;8.40;;;5.00;;
15699;SDS011;7950;42.744;23.174;2023-06-10T10:33:42;4.27;;;3.70;;
15699;SDS011;7950;42.744;23.174;2023-06-10T10:36:23;7.93;;;4.43;;
15699;SDS011;7950;42.744;23.174;2023-06-10T10:38:52;4.27;;;3.63;;
15699;SDS011;7950;42.744;23.174;2023-06-10T10:41:22;4.53;;;3.60;;
15699;SDS011;7950;42.744;23.174;2023-06-10T10:43:52;5.57;;;3.40;;
15699;SDS011;7950;42.744;23.174;2023-06-10T10:46:22;3.77;;;3.40;;
15699;SDS011;7950;42.744;23.174;2023-06-10T10:48:53;4.07;;;3.70;;
15699;SDS011;7950;42.744;23.174;2023-06-10T10:51:23;9.10;;;4.20;;
15699;SDS011;7950;42.744;23.174;2023-06-10T10:54:11;5.80;;;4.03;;
15699;SDS011;7950;42.744;23.174;2023-06-10T10:59:57;6.53;;;3.20;;
15699;SDS011;7950;42.744;23.174;2023-06-10T11:02:40;3.63;;;3.33;;
15699;SDS011;7950;42.744;23.174;2023-06-10T11:05:15;4.93;;;3.00;;
15699;SDS011;7950;42.744;23.174;2023-06-10T11:07:51;3.97;;;3.17;;
15699;SDS011;7950;42.744;23.174;2023-06-10T11:10:28;4.23;;;3.10;;
15699;SDS011;7950;42.744;23.174;2023-06-10T11:12:58;3.43;;;3.13;;
15699;SDS011;7950;42.744;23.174;2023-06-10T11:15:28;4.10;;;3.10;;
15699;SDS011;7950;42.744;23.174;2023-06-10T11:18:10;4.60;;;3.03;;
15699;SDS011;7950;42.744;23.174;2023-06-10T11:20:50;3.10;;;2.80;;
15699;SDS011;7950;42.744;23.174;2023-06-10T11:23:35;3.27;;;2.97;;
15699;SDS011;7950;42.744;23.174;2023-06-10T11:26:18;4.50;;;3.03;;
15699;SDS011;7950;42.744;23.174;2023-06-10T11:29:08;3.30;;;3.00;;
15699;SDS011;7950;42.744;23.174;2023-06-10T11:31:41;3.20;;;2.90;;
15699;SDS011;7950;42.744;23.174;2023-06-10T11:34:22;3.13;;;2.83;;
15699;SDS011;7950;42.744;23.174;2023-06-10T11:36:55;3.40;;;2.90;;
15699;SDS011;7950;42.744;23.174;2023-06-10T11:39:24;4.33;;;2.90;;
15699;SDS011;7950;42.744;23.174;2023-06-10T11:41:53;5.20;;;3.00;;
15699;SDS011;7950;42.744;23.174;2023-06-10T11:44:22;3.43;;;2.67;;
15699;SDS011;7950;42.744;23.174;2023-06-10T11:46:58;3.33;;;2.97;;
15699;SDS011;7950;42.744;23.174;2023-06-10T11:49:27;3.73;;;2.83;;
15699;SDS011;7950;42.744;23.174;2023-06-10T11:51:57;4.00;;;3.30;;
15699;SDS011;7950;42.744;23.174;2023-06-10T11:54:26;4.07;;;3.17;;
15699;SDS011;7950;42.744;23.174;2023-06-10T11:56:57;3.23;;;3.03;;
15699;SDS011;7950;42.744;23.174;2023-06-10T11:59:27;7.83;;;3.50;;
15699;SDS011;7950;42.744;23.174;2023-06-10T12:01:56;3.43;;;3.10;;
15699;SDS011;7950;42.744;23.174;2023-06-10T12:04:24;3.47;;;3.17;;
15699;SDS011;7950;42.744;23.174;2023-06-10T12:06:53;3.40;;;3.00;;
15699;SDS011;7950;42.744;23.174;2023-06-10T12:09:24;3.40;;;3.10;;
15699;SDS011;7950;42.744;23.174;2023-06-10T12:11:56;4.33;;;3.80;;
15699;SDS011;7950;42.744;23.174;2023-06-10T12:17:36;3.57;;;3.27;;
15699;SDS011;7950;42.744;23.174;2023-06-10T12:20:06;4.63;;;3.70;;
15699;SDS011;7950;42.744;23.174;2023-06-10T12:22:51;4.90;;;3.50;;
15699;SDS011;7950;42.744;23.174;2023-06-10T12:25:25;4.90;;;3.60;;
15699;SDS011;7950;42.744;23.174;2023-06-10T12:27:55;4.20;;;3.80;;
15699;SDS011;7950;42.744;23.174;2023-06-10T12:30:26;3.93;;;3.60;;
15699;SDS011;7950;42.744;23.174;2023-06-10T12:32:55;4.23;;;3.67;;
15699;SDS011;7950;42.744;23.174;2023-06-10T12:35:24;4.40;;;3.67;;
15699;SDS011;7950;42.744;23.174;2023-06-10T12:37:55;3.27;;;2.97;;
15699;SDS011;7950;42.744;23.174;2023-06-10T12:40:29;4.73;;;3.60;;
15699;SDS011;7950;42.744;23.174;2023-06-10T12:42:59;5.57;;;3.83;;
15699;SDS011;7950;42.744;23.174;2023-06-10T12:45:28;3.63;;;3.33;;
15699;SDS011;7950;42.744;23.174;2023-06-10T12:48:06;3.50;;;3.20;;
15699;SDS011;7950;42.744;23.174;2023-06-10T12:50:36;7.00;;;4.10;;
15699;SDS011;7950;42.744;23.174;2023-06-10T12:53:07;6.13;;;4.07;;
15699;SDS011;7950;42.744;23.174;2023-06-10T12:55:39;10.30;;;5.03;;
15699;SDS011;7950;42.744;23.174;2023-06-10T12:58:07;4.90;;;3.93;;
15699;SDS011;7950;42.744;23.174;2023-06-10T13:00:36;6.37;;;3.73;;
15699;SDS011;7950;42.744;23.174;2023-06-10T13:03:04;5.77;;;4.10;;
15699;SDS011;7950;42.744;23.174;2023-06-10T13:05:33;5.23;;;4.37;;
15699;SDS011;7950;42.744;23.174;2023-06-10T13:08:05;7.53;;;4.40;;
15699;SDS011;7950;42.744;23.174;2023-06-10T13:10:36;5.97;;;4.63;;
15699;SDS011;7950;42.744;23.174;2023-06-10T13:13:06;7.37;;;4.70;;
15699;SDS011;7950;42.744;23.174;2023-06-10T13:15:36;8.23;;;4.90;;
15699;SDS011;7950;42.744;23.174;2023-06-10T13:18:09;6.73;;;4.57;;
15699;SDS011;7950;42.744;23.174;2023-06-10T13:20:38;6.17;;;4.93;;
15699;SDS011;7950;42.744;23.174;2023-06-10T13:23:07;9.63;;;5.20;;
15699;SDS011;7950;42.744;23.174;2023-06-10T13:25:36;6.00;;;5.40;;
15699;SDS011;7950;42.744;23.174;2023-06-10T13:28:07;10.93;;;5.40;;
15699;SDS011;7950;42.744;23.174;2023-06-10T13:30:36;6.77;;;4.90;;
15699;SDS011;7950;42.744;23.174;2023-06-10T13:33:04;5.33;;;4.73;;
15699;SDS011;7950;42.744;23.174;2023-06-10T13:35:33;6.00;;;4.83;;
15699;SDS011;7950;42.744;23.174;2023-06-10T13:38:01;7.53;;;5.20;;
15699;SDS011;7950;42.744;23.174;2023-06-10T13:40:30;6.10;;;4.77;;
15699;SDS011;7950;42.744;23.174;2023-06-10T13:43:00;4.90;;;4.27;;
15699;SDS011;7950;42.744;23.174;2023-06-10T13:45:29;6.30;;;4.47;;
15699;SDS011;7950;42.744;23.174;2023-06-10T13:47:57;6.07;;;5.10;;
15699;SDS011;7950;42.744;23.174;2023-06-10T13:50:26;6.50;;;5.13;;
15699;SDS011;7950;42.744;23.174;2023-06-10T13:52:54;6.90;;;5.00;;
15699;SDS011;7950;42.744;23.174;2023-06-10T13:55:23;5.73;;;4.93;;
15699;SDS011;7950;42.744;23.174;2023-06-10T13:57:52;5.57;;;4.90;;
15699;SDS011;7950;42.744;23.174;2023-06-10T14:00:22;5.50;;;4.43;;
15699;SDS011;7950;42.744;23.174;2023-06-10T14:02:51;5.73;;;4.70;;
15699;SDS011;7950;42.744;23.174;2023-06-10T14:05:20;5.50;;;4.67;;
15699;SDS011;7950;42.744;23.174;2023-06-10T14:07:48;5.80;;;5.20;;
15699;SDS011;7950;42.744;23.174;2023-06-10T14:10:17;5.23;;;4.40;;
15699;SDS011;7950;42.744;23.174;2023-06-10T14:12:45;5.60;;;4.90;;
15699;SDS011;7950;42.744;23.174;2023-06-10T14:15:14;5.80;;;5.00;;
15699;SDS011;7950;42.744;23.174;2023-06-10T14:17:44;4.97;;;4.47;;
15699;SDS011;7950;42.744;23.174;2023-06-10T14:20:13;5.50;;;5.00;;
15699;SDS011;7950;42.744;23.174;2023-06-10T14:22:41;7.07;;;5.40;;
15699;SDS011;7950;42.744;23.174;2023-06-10T14:25:10;6.13;;;4.80;;
15699;SDS011;7950;42.744;23.174;2023-06-10T14:27:39;5.63;;;5.03;;
15699;SDS011;7950;42.744;23.174;2023-06-10T14:30:08;6.70;;;5.40;;
15699;SDS011;7950;42.744;23.174;2023-06-10T14:32:38;7.53;;;4.63;;
15699;SDS011;7950;42.744;23.174;2023-06-10T14:35:08;7.00;;;5.33;;
15699;SDS011;7950;42.744;23.174;2023-06-10T14:37:37;5.80;;;5.20;;
15699;SDS011;7950;42.744;23.174;2023-06-10T14:40:06;5.33;;;4.83;;
15699;SDS011;7950;42.744;23.174;2023-06-10T14:42:36;5.77;;;4.53;;
15699;SDS011;7950;42.744;23.174;2023-06-10T14:45:05;6.50;;;4.90;;
15699;SDS011;7950;42.744;23.174;2023-06-10T14:47:37;6.30;;;5.40;;
15699;SDS011;7950;42.744;23.174;2023-06-10T14:50:05;5.40;;;4.87;;
15699;SDS011;7950;42.744;23.174;2023-06-10T14:52:36;5.13;;;4.63;;
15699;SDS011;7950;42.744;23.174;2023-06-10T14:55:05;4.47;;;4.03;;
15699;SDS011;7950;42.744;23.174;2023-06-10T14:57:35;7.17;;;5.13;;
15699;SDS011;7950;42.744;23.174;2023-06-10T15:00:04;5.40;;;4.53;;
15699;SDS011;7950;42.744;23.174;2023-06-10T15:02:35;5.10;;;4.70;;
15699;SDS011;7950;42.744;23.174;2023-06-10T15:05:03;4.43;;;3.90;;
15699;SDS011;7950;42.744;23.174;2023-06-10T15:07:34;5.20;;;4.20;;
15699;SDS011;7950;42.744;23.174;2023-06-10T15:10:03;5.90;;;4.30;;
15699;SDS011;7950;42.744;23.174;2023-06-10T15:12:33;6.67;;;4.23;;